createdAt,value
2023-08-15T00:00:30.576Z,5.15
2023-08-15T00:02:57.938Z,5.05
2023-08-15T00:05:25.163Z,4.77
2023-08-15T00:07:52.284Z,4.80
2023-08-15T00:10:19.438Z,4.75
2023-08-15T00:12:48.852Z,4.70
2023-08-15T00:15:16.003Z,4.82
2023-08-15T00:17:42.835Z,5.18
2023-08-15T00:20:10.204Z,4.65
2023-08-15T00:22:37.434Z,4.70
2023-08-15T00:25:04.459Z,5.03
2023-08-15T00:27:31.648Z,4.80
2023-08-15T00:29:58.818Z,4.70
2023-08-15T00:32:25.899Z,5.07
2023-08-15T00:34:53.052Z,4.65
2023-08-15T00:37:20.369Z,4.93
2023-08-15T00:39:47.637Z,5.07
2023-08-15T00:42:14.765Z,5.43
2023-08-15T00:44:43.938Z,5.00
2023-08-15T00:47:11.355Z,5.03
2023-08-15T00:49:38.645Z,5.22
2023-08-15T00:52:07.138Z,5.32
2023-08-15T00:54:34.733Z,5.53
2023-08-15T00:57:03.580Z,5.15
2023-08-15T00:59:30.347Z,4.40
2023-08-15T01:01:57.864Z,5.13
2023-08-15T01:04:25.080Z,4.72
2023-08-15T01:06:52.535Z,4.95
2023-08-15T01:09:19.701Z,5.07
2023-08-15T01:11:52.672Z,4.97
2023-08-15T01:14:21.288Z,5.30
2023-08-15T01:16:50.060Z,5.13
2023-08-15T01:19:37.132Z,4.88
2023-08-15T01:22:05.752Z,4.70
2023-08-15T01:24:33.808Z,4.50
2023-08-15T01:27:00.988Z,4.73
2023-08-15T01:29:28.156Z,4.95
2023-08-15T01:32:01.079Z,4.63
2023-08-15T01:34:33.808Z,5.13
2023-08-15T01:37:07.411Z,4.63
2023-08-15T01:39:35.191Z,4.60
2023-08-15T01:42:03.424Z,4.30
2023-08-15T01:44:31.221Z,4.70
2023-08-15T01:46:59.507Z,4.50
2023-08-15T01:49:26.943Z,4.47
2023-08-15T01:51:55.464Z,4.40
2023-08-15T01:54:22.805Z,4.72
2023-08-15T01:56:49.941Z,4.93
2023-08-15T01:59:17.125Z,4.55
2023-08-15T02:01:44.409Z,4.53
2023-08-15T02:04:11.577Z,4.43
2023-08-15T02:06:38.801Z,4.55
2023-08-15T02:09:05.862Z,4.50
2023-08-15T02:11:33.075Z,4.50
2023-08-15T02:14:00.402Z,4.45
2023-08-15T02:16:27.553Z,4.90
2023-08-15T02:18:54.677Z,4.70
2023-08-15T02:21:21.851Z,4.60
2023-08-15T02:23:48.990Z,4.83
2023-08-15T02:26:16.214Z,4.80
2023-08-15T02:28:43.342Z,4.63
2023-08-15T02:31:11.998Z,4.57
2023-08-15T02:33:39.202Z,4.70
2023-08-15T02:36:07.186Z,4.45
2023-08-15T02:38:34.802Z,4.07
2023-08-15T02:41:04.378Z,4.60
2023-08-15T02:43:33.300Z,4.68
2023-08-15T02:46:00.539Z,4.43
2023-08-15T02:48:27.719Z,4.40
2023-08-15T02:50:54.913Z,4.18
2023-08-15T02:53:22.024Z,4.22
2023-08-15T02:55:52.697Z,3.92
2023-08-15T02:58:19.954Z,4.10
2023-08-15T03:00:47.258Z,4.18
2023-08-15T03:03:16.853Z,4.50
2023-08-15T03:05:44.021Z,4.93
2023-08-15T03:08:11.049Z,4.40
2023-08-15T03:10:40.385Z,4.50
2023-08-15T03:13:07.455Z,4.18
2023-08-15T03:15:34.602Z,4.90
2023-08-15T03:18:01.724Z,4.50
2023-08-15T03:20:30.717Z,4.40
2023-08-15T03:22:57.857Z,4.35
2023-08-15T03:25:24.955Z,4.80
2023-08-15T03:27:52.055Z,4.72
2023-08-15T03:30:19.358Z,4.35
2023-08-15T03:32:46.073Z,4.10
2023-08-15T03:35:13.170Z,4.60
2023-08-15T03:37:40.342Z,4.43
2023-08-15T03:40:08.588Z,4.18
2023-08-15T03:42:35.737Z,4.47
2023-08-15T03:45:02.809Z,4.80
2023-08-15T03:47:30.008Z,4.97
2023-08-15T03:50:00.435Z,5.00
2023-08-15T03:52:27.662Z,4.60
2023-08-15T03:54:54.766Z,4.50
2023-08-15T03:57:22.112Z,4.45
2023-08-15T03:59:49.554Z,4.95
2023-08-15T04:02:16.729Z,5.00
2023-08-15T04:04:43.843Z,5.22
2023-08-15T04:07:11.036Z,4.40
2023-08-15T04:09:38.181Z,5.30
2023-08-15T04:12:05.502Z,5.18
2023-08-15T04:14:32.596Z,4.65
2023-08-15T04:16:59.697Z,4.70
2023-08-15T04:19:26.845Z,4.32
2023-08-15T04:21:53.939Z,4.90
2023-08-15T04:24:21.153Z,4.25
2023-08-15T04:26:48.302Z,4.00
2023-08-15T04:29:15.484Z,4.40
2023-08-15T04:31:42.720Z,4.65
2023-08-15T04:34:10.136Z,4.78
2023-08-15T04:36:37.317Z,4.38
2023-08-15T04:39:04.589Z,4.30
2023-08-15T04:41:31.768Z,5.00
2023-08-15T04:43:58.902Z,4.25
2023-08-15T04:46:26.096Z,4.55
2023-08-15T04:48:53.306Z,3.80
2023-08-15T04:51:20.476Z,4.57
2023-08-15T04:53:47.656Z,4.70
2023-08-15T04:56:14.816Z,4.90
2023-08-15T04:58:42.003Z,5.13
2023-08-15T05:01:09.184Z,4.90
2023-08-15T05:03:36.670Z,4.20
2023-08-15T05:06:03.905Z,4.50
2023-08-15T05:08:31.082Z,4.70
2023-08-15T05:10:58.425Z,4.67
2023-08-15T05:13:25.591Z,5.05
2023-08-15T05:15:52.845Z,4.90
2023-08-15T05:18:20.744Z,4.70
2023-08-15T05:20:48.617Z,4.43
2023-08-15T05:23:16.788Z,6.32
2023-08-15T05:25:44.889Z,6.22
2023-08-15T05:28:12.212Z,5.07
2023-08-15T05:30:39.750Z,4.25
2023-08-15T05:33:06.831Z,4.18
2023-08-15T05:35:34.662Z,4.20
2023-08-15T05:38:01.749Z,4.35
2023-08-15T05:40:29.123Z,4.03
2023-08-15T05:42:56.281Z,4.30
2023-08-15T05:45:23.428Z,4.70
2023-08-15T05:47:50.702Z,5.00
2023-08-15T05:50:18.022Z,5.35
2023-08-15T05:52:45.110Z,4.78
2023-08-15T05:55:12.255Z,4.85
2023-08-15T05:57:39.443Z,5.13
2023-08-15T06:00:06.999Z,5.03
2023-08-15T06:02:36.234Z,5.53
2023-08-15T06:05:04.021Z,5.53
2023-08-15T06:07:31.180Z,5.30
2023-08-15T06:09:58.433Z,5.97
2023-08-15T06:12:25.556Z,5.90
2023-08-15T06:14:52.734Z,5.78
2023-08-15T06:17:20.462Z,6.17
2023-08-15T06:19:47.903Z,5.82
2023-08-15T06:22:16.337Z,5.55
2023-08-15T06:24:43.560Z,5.88
2023-08-15T06:27:10.805Z,6.53
2023-08-15T06:29:38.509Z,5.78
2023-08-15T06:32:09.850Z,6.30
2023-08-15T06:34:37.508Z,6.10
2023-08-15T06:37:05.468Z,7.30
2023-08-15T06:39:32.637Z,6.28
2023-08-15T06:41:59.784Z,6.05
2023-08-15T06:44:27.691Z,6.53
2023-08-15T06:46:55.212Z,6.20
2023-08-15T06:49:22.365Z,6.75
2023-08-15T06:51:49.529Z,6.25
2023-08-15T06:54:16.697Z,6.43
2023-08-15T06:56:43.931Z,6.53
2023-08-15T06:59:11.168Z,5.90
2023-08-15T07:01:37.891Z,6.40
2023-08-15T07:04:05.290Z,6.63
2023-08-15T07:06:33.144Z,6.50
2023-08-15T07:09:00.397Z,6.57
2023-08-15T07:11:27.523Z,6.40
2023-08-15T07:13:54.965Z,5.93
2023-08-15T07:16:26.339Z,6.10
2023-08-15T07:18:53.786Z,6.00
2023-08-15T07:21:23.985Z,5.53
2023-08-15T07:23:54.206Z,5.68
2023-08-15T07:26:21.495Z,5.50
2023-08-15T07:28:48.530Z,5.28
2023-08-15T07:31:16.590Z,5.82
2023-08-15T07:33:43.910Z,5.40
2023-08-15T07:36:11.083Z,5.53
2023-08-15T07:38:38.286Z,6.13
2023-08-15T07:41:05.602Z,5.85
2023-08-15T07:43:32.910Z,5.90
2023-08-15T07:46:00.089Z,5.45
2023-08-15T07:48:27.308Z,5.80
2023-08-15T07:50:54.446Z,5.47
2023-08-15T07:53:22.529Z,5.28
2023-08-15T07:55:49.632Z,5.07
2023-08-15T07:58:17.052Z,5.38
2023-08-15T08:00:44.455Z,5.17
2023-08-15T08:03:11.757Z,4.68
2023-08-15T08:05:38.910Z,5.20
2023-08-15T08:08:06.203Z,5.32
2023-08-15T08:10:33.529Z,5.10
2023-08-15T08:13:01.716Z,4.88
2023-08-15T08:15:29.409Z,5.25
2023-08-15T08:17:56.618Z,5.10
2023-08-15T08:20:23.780Z,5.47
2023-08-15T08:22:51.022Z,9.70
2023-08-15T08:25:18.436Z,5.80
2023-08-15T08:27:46.146Z,5.60
2023-08-15T08:30:14.911Z,5.10
2023-08-15T08:32:42.124Z,5.10
2023-08-15T08:35:09.575Z,5.38
2023-08-15T08:37:36.756Z,5.70
2023-08-15T08:40:05.948Z,5.50
2023-08-15T08:42:33.254Z,6.18
2023-08-15T08:45:01.279Z,5.60
2023-08-15T08:47:29.679Z,5.50
2023-08-15T08:49:58.593Z,5.70
2023-08-15T08:52:26.414Z,5.10
2023-08-15T08:54:57.440Z,5.33
2023-08-15T08:57:26.311Z,5.38
2023-08-15T08:59:56.099Z,5.57
2023-08-15T09:02:24.040Z,5.60
2023-08-15T09:04:51.190Z,5.32
2023-08-15T09:07:18.401Z,5.53
2023-08-15T09:09:45.552Z,5.22
2023-08-15T09:12:34.060Z,5.30
2023-08-15T09:15:01.282Z,5.50
2023-08-15T09:17:28.488Z,4.68
2023-08-15T09:19:56.191Z,5.25
2023-08-15T09:22:23.962Z,5.10
2023-08-15T09:24:51.601Z,5.47
2023-08-15T09:27:19.593Z,5.50
2023-08-15T09:29:47.036Z,5.33
2023-08-15T09:32:14.229Z,5.30
2023-08-15T09:34:41.382Z,4.95
2023-08-15T09:37:09.943Z,4.63
2023-08-15T09:39:37.162Z,5.05
2023-08-15T09:42:04.690Z,4.68
2023-08-15T09:44:33.985Z,5.20
2023-08-15T09:47:01.963Z,5.00
2023-08-15T09:49:30.008Z,4.75
2023-08-15T09:52:01.042Z,4.65
2023-08-15T09:54:29.613Z,4.50
2023-08-15T09:56:57.937Z,4.43
2023-08-15T09:59:25.290Z,4.10
2023-08-15T10:01:53.607Z,4.00
2023-08-15T10:04:21.903Z,4.13
2023-08-15T10:06:49.372Z,4.18
2023-08-15T10:09:17.057Z,4.40
2023-08-15T10:11:45.858Z,4.05
2023-08-15T10:14:15.825Z,4.10
2023-08-15T10:16:43.798Z,4.50
2023-08-15T10:19:12.279Z,4.00
2023-08-15T10:21:55.035Z,4.00
2023-08-15T10:24:23.318Z,4.28
2023-08-15T10:26:53.933Z,4.30
2023-08-15T10:29:21.050Z,4.00
2023-08-15T10:31:48.306Z,4.28
2023-08-15T10:34:18.848Z,4.20
2023-08-15T10:36:47.119Z,4.38
2023-08-15T10:39:16.173Z,3.90
2023-08-15T10:41:43.346Z,4.10
2023-08-15T10:44:11.443Z,4.20
2023-08-15T10:46:38.839Z,3.80
2023-08-15T10:49:14.519Z,3.75
2023-08-15T10:51:44.044Z,3.90
2023-08-15T10:54:12.969Z,3.85
2023-08-15T10:56:40.862Z,3.40
2023-08-15T10:59:09.666Z,3.45
2023-08-15T11:01:38.302Z,3.58
2023-08-15T11:04:06.167Z,3.47
2023-08-15T11:06:41.695Z,3.63
2023-08-15T11:09:08.828Z,3.55
2023-08-15T11:11:36.050Z,3.50
2023-08-15T11:14:03.230Z,3.47
2023-08-15T11:16:30.481Z,3.47
2023-08-15T11:18:58.988Z,3.47
2023-08-15T11:21:28.950Z,3.60
2023-08-15T11:23:59.013Z,3.92
2023-08-15T11:26:27.281Z,3.80
2023-08-15T11:28:54.573Z,3.80
2023-08-15T11:31:23.366Z,3.70
2023-08-15T11:33:52.588Z,3.78
2023-08-15T11:36:20.422Z,3.60
2023-08-15T11:38:47.567Z,3.72
2023-08-15T11:41:15.077Z,3.88
2023-08-15T11:43:42.293Z,4.22
2023-08-15T11:46:09.531Z,3.70
2023-08-15T11:48:36.886Z,3.78
2023-08-15T11:51:04.001Z,3.53
2023-08-15T11:53:31.154Z,3.83
2023-08-15T11:55:58.382Z,3.60
2023-08-15T11:58:30.031Z,3.40
2023-08-15T12:00:58.486Z,3.38
2023-08-15T12:03:27.133Z,3.47
2023-08-15T12:05:55.209Z,2.83
2023-08-15T12:08:23.047Z,2.88
2023-08-15T12:10:50.185Z,3.00
2023-08-15T12:13:18.109Z,3.08
2023-08-15T12:15:45.410Z,2.90
2023-08-15T12:18:12.639Z,3.15
2023-08-15T12:20:39.844Z,2.75
2023-08-15T12:23:12.472Z,2.70
2023-08-15T12:25:45.920Z,2.65
2023-08-15T12:28:13.020Z,3.22
2023-08-15T12:30:40.286Z,3.10
2023-08-15T12:33:08.625Z,3.30
2023-08-15T12:35:35.914Z,2.75
2023-08-15T12:38:03.253Z,2.90
2023-08-15T12:40:31.405Z,3.22
2023-08-15T12:42:59.063Z,2.63
2023-08-15T12:45:26.687Z,3.20
2023-08-15T12:47:54.017Z,3.25
2023-08-15T12:50:21.172Z,3.60
2023-08-15T12:52:48.320Z,3.42
2023-08-15T12:55:15.595Z,3.05
2023-08-15T12:57:43.041Z,3.35
2023-08-15T13:00:10.463Z,3.53
2023-08-15T13:02:37.854Z,3.58
2023-08-15T13:05:06.289Z,3.57
2023-08-15T13:07:34.404Z,3.67
2023-08-15T13:10:02.006Z,3.55
2023-08-15T13:12:29.201Z,3.85
2023-08-15T13:14:56.518Z,4.07
2023-08-15T13:17:23.901Z,3.47
2023-08-15T13:19:51.376Z,3.38
2023-08-15T13:22:19.889Z,3.15
2023-08-15T13:24:47.491Z,2.65
2023-08-15T13:27:14.707Z,2.38
2023-08-15T13:29:43.323Z,2.38
2023-08-15T13:32:11.772Z,2.30
2023-08-15T13:34:38.903Z,2.80
2023-08-15T13:37:06.018Z,2.50
2023-08-15T13:39:33.169Z,2.45
2023-08-15T13:42:00.323Z,2.70
2023-08-15T13:44:27.445Z,2.53
2023-08-15T13:46:54.597Z,2.47
2023-08-15T13:49:21.789Z,2.50
2023-08-15T13:51:48.902Z,2.53
2023-08-15T13:54:16.164Z,2.30
2023-08-15T13:56:43.368Z,2.92
2023-08-15T13:59:10.638Z,2.50
2023-08-15T14:01:37.783Z,2.80
2023-08-15T14:04:05.078Z,2.40
2023-08-15T14:06:32.266Z,3.05
2023-08-15T14:08:59.603Z,2.65
2023-08-15T14:11:27.200Z,2.53
2023-08-15T14:13:54.041Z,2.70
2023-08-15T14:16:21.439Z,2.60
2023-08-15T14:18:48.678Z,2.45
2023-08-15T14:21:16.012Z,3.47
2023-08-15T14:23:45.403Z,2.97
2023-08-15T14:26:12.760Z,3.88
2023-08-15T14:28:39.935Z,3.00
2023-08-15T14:31:07.467Z,2.70
2023-08-15T14:33:34.639Z,3.00
2023-08-15T14:36:01.876Z,3.28
2023-08-15T14:38:29.052Z,2.87
2023-08-15T14:40:55.880Z,3.30
2023-08-15T14:43:23.054Z,3.20
2023-08-15T14:45:50.268Z,2.88
2023-08-15T14:48:17.432Z,3.33
2023-08-15T14:50:44.642Z,3.27
2023-08-15T14:53:11.773Z,3.13
2023-08-15T14:55:39.089Z,3.20
2023-08-15T14:58:05.711Z,3.42
2023-08-15T15:00:33.183Z,3.40
2023-08-15T15:03:00.478Z,3.13
2023-08-15T15:05:27.818Z,3.20
2023-08-15T15:07:54.938Z,3.15
2023-08-15T15:10:22.213Z,4.73
2023-08-15T15:12:49.439Z,3.58
2023-08-15T15:15:16.623Z,4.45
2023-08-15T15:17:43.872Z,3.55
2023-08-15T15:20:11.581Z,3.20
2023-08-15T15:22:39.223Z,3.53
2023-08-15T15:25:07.817Z,3.42
2023-08-15T15:27:35.600Z,3.90
2023-08-15T15:30:03.041Z,3.50
2023-08-15T15:32:30.248Z,3.58
2023-08-15T15:34:57.366Z,3.78
2023-08-15T15:37:24.496Z,4.00
2023-08-15T15:39:51.638Z,3.80
2023-08-15T15:42:18.983Z,4.07
2023-08-15T15:44:46.258Z,3.70
2023-08-15T15:47:14.277Z,3.70
2023-08-15T15:49:41.491Z,3.80
2023-08-15T15:52:08.545Z,3.63
2023-08-15T15:54:35.777Z,4.10
2023-08-15T15:57:03.087Z,3.60
2023-08-15T15:59:30.292Z,4.10
2023-08-15T16:01:57.420Z,3.90
2023-08-15T16:04:24.657Z,3.90
2023-08-15T16:06:51.850Z,3.60
2023-08-15T16:09:19.041Z,3.75
2023-08-15T16:11:46.169Z,4.00
2023-08-15T16:14:13.329Z,3.47
2023-08-15T16:16:40.478Z,3.83
2023-08-15T16:19:08.353Z,3.88
2023-08-15T16:21:37.536Z,3.80
2023-08-15T16:24:04.560Z,3.67
2023-08-15T16:26:31.702Z,3.75
2023-08-15T16:28:58.908Z,3.35
2023-08-15T16:31:26.536Z,3.40
2023-08-15T16:33:53.741Z,3.17
2023-08-15T16:36:20.952Z,3.10
2023-08-15T16:38:48.133Z,3.10
2023-08-15T16:41:15.450Z,3.10
2023-08-15T16:43:42.617Z,2.70
2023-08-15T16:46:09.778Z,3.55
2023-08-15T16:48:38.493Z,2.90
2023-08-15T16:51:05.788Z,2.88
2023-08-15T16:53:32.933Z,2.70
2023-08-15T16:56:02.500Z,2.80
2023-08-15T16:58:29.596Z,3.17
2023-08-15T17:00:56.802Z,3.08
2023-08-15T17:03:24.681Z,3.15
2023-08-15T17:05:51.921Z,2.97
2023-08-15T17:08:19.139Z,3.20
2023-08-15T17:10:46.217Z,2.92
2023-08-15T17:13:13.992Z,2.72
2023-08-15T17:15:41.173Z,2.88
2023-08-15T17:18:08.399Z,3.03
2023-08-15T17:20:35.511Z,3.45
2023-08-15T17:23:02.693Z,3.15
2023-08-15T17:25:29.816Z,3.10
2023-08-15T17:27:57.532Z,2.97
2023-08-15T17:30:24.647Z,3.17
2023-08-15T17:32:51.868Z,2.85
2023-08-15T17:35:19.021Z,3.30
2023-08-15T17:37:47.919Z,3.15
2023-08-15T17:40:16.062Z,3.25
2023-08-15T17:42:43.283Z,3.47
2023-08-15T17:45:10.896Z,3.90
2023-08-15T17:47:38.606Z,3.50
2023-08-15T17:50:07.132Z,3.30
2023-08-15T17:52:35.797Z,3.72
2023-08-15T17:55:03.157Z,3.85
2023-08-15T17:57:30.507Z,3.63
2023-08-15T17:59:57.809Z,3.75
2023-08-15T18:02:25.313Z,3.70
2023-08-15T18:04:52.830Z,4.47
2023-08-15T18:07:20.033Z,3.80
2023-08-15T18:09:47.279Z,3.63
2023-08-15T18:12:14.471Z,3.60
2023-08-15T18:14:43.846Z,3.42
2023-08-15T18:17:11.256Z,3.50
2023-08-15T18:19:39.797Z,3.42
2023-08-15T18:22:08.553Z,3.43
2023-08-15T18:24:36.483Z,3.35
2023-08-15T18:27:03.853Z,3.22
2023-08-15T18:29:31.313Z,3.25
2023-08-15T18:31:58.516Z,3.47
2023-08-15T18:34:25.850Z,3.60
2023-08-15T18:36:53.018Z,3.88
2023-08-15T18:39:20.930Z,3.80
2023-08-15T18:41:48.374Z,3.83
2023-08-15T18:44:16.692Z,3.97
2023-08-15T18:46:46.208Z,4.07
2023-08-15T18:49:15.016Z,4.18
2023-08-15T18:51:42.138Z,3.90
2023-08-15T18:54:09.353Z,3.77
2023-08-15T18:56:36.583Z,4.28
2023-08-15T18:59:03.768Z,3.53
2023-08-15T19:01:31.022Z,3.70
2023-08-15T19:03:58.360Z,3.88
2023-08-15T19:06:25.523Z,3.75
2023-08-15T19:08:52.662Z,3.67
2023-08-15T19:11:19.839Z,3.80
2023-08-15T19:13:47.003Z,4.07
2023-08-15T19:16:14.210Z,4.20
2023-08-15T19:18:41.385Z,3.63
2023-08-15T19:21:08.527Z,3.72
2023-08-15T19:23:35.611Z,3.65
2023-08-15T19:26:02.803Z,4.60
2023-08-15T19:28:30.100Z,4.17
2023-08-15T19:30:58.275Z,4.22
2023-08-15T19:33:25.543Z,4.45
2023-08-15T19:35:52.780Z,4.18
2023-08-15T19:38:20.032Z,4.25
2023-08-15T19:40:47.160Z,4.33
2023-08-15T19:43:14.354Z,4.30
2023-08-15T19:45:41.541Z,4.33
2023-08-15T19:48:08.821Z,4.45
2023-08-15T19:50:36.204Z,4.32
2023-08-15T19:53:03.401Z,4.70
2023-08-15T19:55:33.051Z,4.80
2023-08-15T19:58:01.096Z,4.30
2023-08-15T20:00:28.247Z,4.90
2023-08-15T20:02:55.491Z,4.75
2023-08-15T20:05:22.975Z,4.93
2023-08-15T20:07:50.143Z,4.60
2023-08-15T20:10:17.384Z,4.30
2023-08-15T20:12:44.940Z,4.53
2023-08-15T20:15:12.347Z,4.20
2023-08-15T20:17:39.710Z,4.65
2023-08-15T20:20:07.279Z,4.50
2023-08-15T20:22:35.702Z,4.97
2023-08-15T20:25:03.199Z,4.75
2023-08-15T20:27:30.403Z,4.50
2023-08-15T20:29:58.010Z,4.47
2023-08-15T20:32:26.277Z,4.00
2023-08-15T20:34:53.936Z,4.60
2023-08-15T20:37:21.238Z,4.80
2023-08-15T20:39:48.390Z,4.30
2023-08-15T20:42:15.747Z,4.43
2023-08-15T20:44:42.881Z,4.53
2023-08-15T20:47:10.031Z,4.60
2023-08-15T20:49:37.263Z,4.78
2023-08-15T20:52:04.975Z,4.63
2023-08-15T20:54:33.137Z,5.03
2023-08-15T20:57:00.416Z,4.50
2023-08-15T20:59:27.807Z,4.43
2023-08-15T21:01:54.982Z,4.43
2023-08-15T21:04:22.529Z,4.90
2023-08-15T21:06:52.311Z,4.70
2023-08-15T21:09:19.613Z,4.82
2023-08-15T21:11:46.797Z,4.93
2023-08-15T21:14:15.298Z,4.75
2023-08-15T21:16:42.423Z,4.85
2023-08-15T21:19:09.671Z,4.40
2023-08-15T21:21:36.922Z,4.40
2023-08-15T21:24:04.134Z,4.30
2023-08-15T21:26:31.365Z,4.70
2023-08-15T21:28:58.599Z,4.38
2023-08-15T21:31:27.375Z,4.97
2023-08-15T21:33:54.501Z,5.63
2023-08-15T21:36:21.776Z,6.90
2023-08-15T21:38:48.976Z,5.53
2023-08-15T21:41:18.049Z,5.10
2023-08-15T21:43:45.292Z,4.60
2023-08-15T21:46:12.549Z,5.37
2023-08-15T21:48:39.681Z,5.07
2023-08-15T21:51:06.845Z,4.90
2023-08-15T21:53:34.000Z,5.13
2023-08-15T21:56:01.225Z,4.75
2023-08-15T21:58:28.399Z,5.00
2023-08-15T22:00:55.634Z,5.00
2023-08-15T22:03:22.855Z,4.93
2023-08-15T22:05:51.076Z,4.80
2023-08-15T22:08:18.244Z,4.72
2023-08-15T22:10:47.518Z,4.90
2023-08-15T22:13:15.174Z,4.72
2023-08-15T22:15:42.444Z,4.75
2023-08-15T22:18:19.737Z,5.10
2023-08-15T22:20:48.627Z,4.70
2023-08-15T22:23:15.854Z,4.93
2023-08-15T22:25:46.901Z,4.72
2023-08-15T22:28:14.271Z,5.40
2023-08-15T22:30:41.480Z,5.40
2023-08-15T22:33:08.741Z,5.07
2023-08-15T22:35:36.875Z,5.13
2023-08-15T22:38:04.221Z,5.22
2023-08-15T22:40:31.396Z,5.28
2023-08-15T22:42:58.601Z,5.32
2023-08-15T22:45:25.738Z,5.30
2023-08-15T22:47:52.985Z,5.97
2023-08-15T22:50:20.132Z,5.40
2023-08-15T22:52:47.312Z,5.65
2023-08-15T22:55:14.455Z,5.80
2023-08-15T22:57:41.614Z,5.90
2023-08-15T23:00:10.911Z,5.78
2023-08-15T23:02:38.611Z,5.78
2023-08-15T23:05:05.913Z,5.60
2023-08-15T23:07:33.186Z,5.28
2023-08-15T23:10:00.400Z,5.50
2023-08-15T23:12:27.548Z,5.25
2023-08-15T23:14:54.697Z,5.32
2023-08-15T23:17:22.110Z,5.65
2023-08-15T23:19:49.505Z,5.90
2023-08-15T23:22:16.651Z,5.80
2023-08-15T23:24:43.813Z,5.77
2023-08-15T23:27:10.981Z,5.57
2023-08-15T23:29:38.100Z,5.40
2023-08-15T23:32:05.521Z,5.43
2023-08-15T23:34:32.589Z,6.00
2023-08-15T23:36:59.771Z,5.93
2023-08-15T23:39:26.981Z,5.68
2023-08-15T23:41:54.200Z,5.80
2023-08-15T23:44:21.351Z,5.82
2023-08-15T23:46:48.914Z,6.18
2023-08-15T23:49:16.309Z,5.82
2023-08-15T23:51:43.570Z,6.03
2023-08-15T23:54:10.778Z,5.30
2023-08-15T23:56:37.945Z,5.72
2023-08-15T23:59:05.147Z,5.63
